Terminal Aerodrome Forecast
Issued by NWS Albany, NY

Home | Current Version | Previous Version | Text Only | Print | Product List | Glossary On
Versions: 1 2 3 4 5 6 7 8 9 10 11 12 13 14 15 16 17 18 19
000
FTUS41 KALY 031137
TAFALB
TAF
KALB 031137Z 0312/0412 VRB04KT P6SM SCT250
     FM031600 17006KT P6SM SCT120 OVC200
     FM031900 18009KT P6SM VCSH OVC060
     FM032100 18010G17KT 1SM -SN BR OVC015
     FM040100 18011G18KT 2SM -FZRAPL BR OVC008
     FM040500 21010KT 3SM BR VCSH OVC015=

USA.gov is the U.S. government's official web portal to all federal, state and local government web resources and services.